sensor_id;sensor_type;location;lat;lon;timestamp;P1;durP1;ratioP1;P2;durP2;ratioP2
50633;SDS011;36596;55.798;38.462;2022-08-07T00:01:20;38.78;;;34.05;;
50633;SDS011;36596;55.798;38.462;2022-08-07T00:03:47;37.80;;;31.77;;
50633;SDS011;36596;55.798;38.462;2022-08-07T00:06:13;36.97;;;27.83;;
50633;SDS011;36596;55.798;38.462;2022-08-07T00:08:39;31.23;;;26.27;;
50633;SDS011;36596;55.798;38.462;2022-08-07T00:11:05;34.22;;;24.92;;
50633;SDS011;36596;55.798;38.462;2022-08-07T00:13:32;25.63;;;22.90;;
50633;SDS011;36596;55.798;38.462;2022-08-07T00:16:02;23.80;;;20.77;;
50633;SDS011;36596;55.798;38.462;2022-08-07T00:18:28;22.08;;;19.52;;
50633;SDS011;36596;55.798;38.462;2022-08-07T00:21:00;25.80;;;19.17;;
50633;SDS011;36596;55.798;38.462;2022-08-07T00:23:29;23.20;;;19.98;;
50633;SDS011;36596;55.798;38.462;2022-08-07T00:25:57;30.40;;;20.92;;
50633;SDS011;36596;55.798;38.462;2022-08-07T00:28:24;21.25;;;18.60;;
50633;SDS011;36596;55.798;38.462;2022-08-07T00:30:50;21.88;;;18.60;;
50633;SDS011;36596;55.798;38.462;2022-08-07T00:33:15;35.65;;;25.85;;
50633;SDS011;36596;55.798;38.462;2022-08-07T00:35:42;44.63;;;35.47;;
50633;SDS011;36596;55.798;38.462;2022-08-07T00:38:07;45.95;;;33.20;;
50633;SDS011;36596;55.798;38.462;2022-08-07T00:40:33;32.63;;;25.38;;
50633;SDS011;36596;55.798;38.462;2022-08-07T00:43:00;32.17;;;23.90;;
50633;SDS011;36596;55.798;38.462;2022-08-07T00:45:26;21.40;;;19.08;;
50633;SDS011;36596;55.798;38.462;2022-08-07T00:47:52;22.35;;;18.30;;
50633;SDS011;36596;55.798;38.462;2022-08-07T00:50:18;20.95;;;16.70;;
50633;SDS011;36596;55.798;38.462;2022-08-07T00:52:44;28.60;;;19.02;;
50633;SDS011;36596;55.798;38.462;2022-08-07T00:55:10;19.10;;;14.48;;
50633;SDS011;36596;55.798;38.462;2022-08-07T00:57:36;23.75;;;16.08;;
50633;SDS011;36596;55.798;38.462;2022-08-07T01:00:03;24.50;;;17.95;;
50633;SDS011;36596;55.798;38.462;2022-08-07T01:02:31;19.48;;;17.02;;
50633;SDS011;36596;55.798;38.462;2022-08-07T01:04:57;20.48;;;17.85;;
50633;SDS011;36596;55.798;38.462;2022-08-07T01:07:24;21.98;;;18.50;;
50633;SDS011;36596;55.798;38.462;2022-08-07T01:09:52;28.52;;;24.90;;
50633;SDS011;36596;55.798;38.462;2022-08-07T01:12:18;41.83;;;34.28;;
50633;SDS011;36596;55.798;38.462;2022-08-07T01:14:44;35.50;;;26.90;;
50633;SDS011;36596;55.798;38.462;2022-08-07T01:17:11;29.30;;;24.35;;
50633;SDS011;36596;55.798;38.462;2022-08-07T01:19:37;28.77;;;22.67;;
50633;SDS011;36596;55.798;38.462;2022-08-07T01:22:04;39.53;;;31.25;;
50633;SDS011;36596;55.798;38.462;2022-08-07T01:24:36;45.53;;;38.05;;
50633;SDS011;36596;55.798;38.462;2022-08-07T01:27:03;51.40;;;41.75;;
50633;SDS011;36596;55.798;38.462;2022-08-07T01:29:29;55.20;;;44.75;;
50633;SDS011;36596;55.798;38.462;2022-08-07T01:31:56;49.10;;;36.75;;
50633;SDS011;36596;55.798;38.462;2022-08-07T01:34:22;60.75;;;47.67;;
50633;SDS011;36596;55.798;38.462;2022-08-07T01:36:48;42.08;;;33.22;;
50633;SDS011;36596;55.798;38.462;2022-08-07T01:39:19;34.33;;;28.70;;
50633;SDS011;36596;55.798;38.462;2022-08-07T01:41:56;43.95;;;32.33;;
50633;SDS011;36596;55.798;38.462;2022-08-07T01:44:26;23.70;;;21.20;;
50633;SDS011;36596;55.798;38.462;2022-08-07T01:46:51;27.92;;;20.33;;
50633;SDS011;36596;55.798;38.462;2022-08-07T01:49:17;26.92;;;19.90;;
50633;SDS011;36596;55.798;38.462;2022-08-07T01:51:45;30.35;;;23.48;;
50633;SDS011;36596;55.798;38.462;2022-08-07T01:54:13;24.95;;;20.88;;
50633;SDS011;36596;55.798;38.462;2022-08-07T01:56:48;31.23;;;23.13;;
50633;SDS011;36596;55.798;38.462;2022-08-07T01:59:26;65.35;;;45.97;;
50633;SDS011;36596;55.798;38.462;2022-08-07T02:02:00;74.70;;;50.00;;
50633;SDS011;36596;55.798;38.462;2022-08-07T02:07:37;70.75;;;46.83;;
50633;SDS011;36596;55.798;38.462;2022-08-07T02:10:08;93.80;;;57.53;;
50633;SDS011;36596;55.798;38.462;2022-08-07T02:12:39;66.43;;;43.55;;
50633;SDS011;36596;55.798;38.462;2022-08-07T02:15:13;64.57;;;45.50;;
50633;SDS011;36596;55.798;38.462;2022-08-07T02:17:41;72.20;;;47.05;;
50633;SDS011;36596;55.798;38.462;2022-08-07T02:20:08;53.85;;;33.90;;
50633;SDS011;36596;55.798;38.462;2022-08-07T02:22:36;31.85;;;22.73;;
50633;SDS011;36596;55.798;38.462;2022-08-07T02:25:04;30.73;;;20.90;;
50633;SDS011;36596;55.798;38.462;2022-08-07T02:27:32;46.55;;;31.88;;
50633;SDS011;36596;55.798;38.462;2022-08-07T02:29:59;63.38;;;37.40;;
50633;SDS011;36596;55.798;38.462;2022-08-07T02:32:32;58.70;;;35.83;;
50633;SDS011;36596;55.798;38.462;2022-08-07T02:35:06;61.08;;;37.47;;
50633;SDS011;36596;55.798;38.462;2022-08-07T02:37:36;59.65;;;35.40;;
50633;SDS011;36596;55.798;38.462;2022-08-07T02:40:07;110.50;;;77.00;;
50633;SDS011;36596;55.798;38.462;2022-08-07T02:42:33;77.47;;;49.78;;
50633;SDS011;36596;55.798;38.462;2022-08-07T02:45:02;105.40;;;68.22;;
50633;SDS011;36596;55.798;38.462;2022-08-07T02:47:30;77.32;;;50.25;;
50633;SDS011;36596;55.798;38.462;2022-08-07T02:50:09;55.90;;;37.40;;
50633;SDS011;36596;55.798;38.462;2022-08-07T02:52:45;47.45;;;34.15;;
50633;SDS011;36596;55.798;38.462;2022-08-07T02:55:17;52.65;;;39.30;;
50633;SDS011;36596;55.798;38.462;2022-08-07T03:00:13;58.55;;;43.50;;
50633;SDS011;36596;55.798;38.462;2022-08-07T03:02:41;35.97;;;26.88;;
50633;SDS011;36596;55.798;38.462;2022-08-07T03:05:11;29.92;;;20.98;;
50633;SDS011;36596;55.798;38.462;2022-08-07T03:07:38;36.63;;;27.05;;
50633;SDS011;36596;55.798;38.462;2022-08-07T03:10:06;51.03;;;38.83;;
50633;SDS011;36596;55.798;38.462;2022-08-07T03:12:32;60.33;;;45.67;;
50633;SDS011;36596;55.798;38.462;2022-08-07T03:15:05;66.25;;;47.88;;
50633;SDS011;36596;55.798;38.462;2022-08-07T03:17:32;36.90;;;28.13;;
50633;SDS011;36596;55.798;38.462;2022-08-07T03:20:00;30.50;;;21.10;;
50633;SDS011;36596;55.798;38.462;2022-08-07T03:22:28;35.30;;;25.10;;
50633;SDS011;36596;55.798;38.462;2022-08-07T03:24:54;22.95;;;16.10;;
50633;SDS011;36596;55.798;38.462;2022-08-07T03:27:21;23.42;;;15.57;;
50633;SDS011;36596;55.798;38.462;2022-08-07T03:29:49;16.88;;;12.68;;
50633;SDS011;36596;55.798;38.462;2022-08-07T03:32:20;15.57;;;11.98;;
50633;SDS011;36596;55.798;38.462;2022-08-07T03:34:50;18.67;;;10.90;;
50633;SDS011;36596;55.798;38.462;2022-08-07T03:37:22;18.13;;;11.25;;
50633;SDS011;36596;55.798;38.462;2022-08-07T03:39:49;11.30;;;8.27;;
50633;SDS011;36596;55.798;38.462;2022-08-07T03:42:16;12.68;;;8.77;;
50633;SDS011;36596;55.798;38.462;2022-08-07T03:44:45;15.27;;;9.90;;
50633;SDS011;36596;55.798;38.462;2022-08-07T03:47:11;17.60;;;12.30;;
50633;SDS011;36596;55.798;38.462;2022-08-07T03:49:38;51.83;;;31.05;;
50633;SDS011;36596;55.798;38.462;2022-08-07T03:52:05;59.85;;;35.17;;
50633;SDS011;36596;55.798;38.462;2022-08-07T03:54:33;54.35;;;30.23;;
50633;SDS011;36596;55.798;38.462;2022-08-07T03:57:00;31.75;;;20.10;;
50633;SDS011;36596;55.798;38.462;2022-08-07T03:59:28;22.03;;;13.83;;
50633;SDS011;36596;55.798;38.462;2022-08-07T04:01:56;12.65;;;8.55;;
50633;SDS011;36596;55.798;38.462;2022-08-07T04:04:23;14.15;;;10.30;;
50633;SDS011;36596;55.798;38.462;2022-08-07T04:06:54;16.52;;;9.90;;
50633;SDS011;36596;55.798;38.462;2022-08-07T04:09:22;11.65;;;8.15;;
50633;SDS011;36596;55.798;38.462;2022-08-07T04:11:54;11.40;;;7.38;;
50633;SDS011;36596;55.798;38.462;2022-08-07T04:14:20;10.77;;;7.80;;
50633;SDS011;36596;55.798;38.462;2022-08-07T04:16:48;11.40;;;7.70;;
50633;SDS011;36596;55.798;38.462;2022-08-07T04:19:15;11.48;;;7.55;;
50633;SDS011;36596;55.798;38.462;2022-08-07T04:21:48;13.15;;;8.15;;
50633;SDS011;36596;55.798;38.462;2022-08-07T04:24:14;31.90;;;21.60;;
50633;SDS011;36596;55.798;38.462;2022-08-07T04:26:41;42.55;;;26.02;;
50633;SDS011;36596;55.798;38.462;2022-08-07T04:29:09;47.60;;;30.70;;
50633;SDS011;36596;55.798;38.462;2022-08-07T04:31:39;35.05;;;23.92;;
50633;SDS011;36596;55.798;38.462;2022-08-07T04:34:06;17.05;;;10.45;;
50633;SDS011;36596;55.798;38.462;2022-08-07T04:36:34;13.70;;;6.28;;
50633;SDS011;36596;55.798;38.462;2022-08-07T04:39:03;14.90;;;9.18;;
50633;SDS011;36596;55.798;38.462;2022-08-07T04:41:30;12.85;;;5.22;;
50633;SDS011;36596;55.798;38.462;2022-08-07T04:43:56;8.15;;;5.75;;
50633;SDS011;36596;55.798;38.462;2022-08-07T04:57:35;7.32;;;3.53;;
50633;SDS011;36596;55.798;38.462;2022-08-07T05:00:23;6.03;;;3.13;;
50633;SDS011;36596;55.798;38.462;2022-08-07T05:03:19;9.15;;;4.95;;
50633;SDS011;36596;55.798;38.462;2022-08-07T05:05:57;5.10;;;3.70;;
50633;SDS011;36596;55.798;38.462;2022-08-07T05:08:43;8.77;;;5.07;;
50633;SDS011;36596;55.798;38.462;2022-08-07T05:11:15;12.20;;;4.70;;
50633;SDS011;36596;55.798;38.462;2022-08-07T05:13:48;10.27;;;4.82;;
50633;SDS011;36596;55.798;38.462;2022-08-07T05:16:19;5.95;;;4.47;;
50633;SDS011;36596;55.798;38.462;2022-08-07T05:18:50;5.60;;;3.70;;
50633;SDS011;36596;55.798;38.462;2022-08-07T05:21:20;5.78;;;3.28;;
50633;SDS011;36596;55.798;38.462;2022-08-07T05:23:52;7.20;;;3.42;;
50633;SDS011;36596;55.798;38.462;2022-08-07T05:26:23;8.70;;;5.10;;
50633;SDS011;36596;55.798;38.462;2022-08-07T05:28:58;9.02;;;5.32;;
50633;SDS011;36596;55.798;38.462;2022-08-07T05:31:29;12.23;;;5.03;;
50633;SDS011;36596;55.798;38.462;2022-08-07T05:34:00;8.55;;;4.55;;
50633;SDS011;36596;55.798;38.462;2022-08-07T05:36:28;9.82;;;4.00;;
50633;SDS011;36596;55.798;38.462;2022-08-07T05:38:56;10.27;;;4.45;;
50633;SDS011;36596;55.798;38.462;2022-08-07T05:41:23;6.90;;;4.28;;
50633;SDS011;36596;55.798;38.462;2022-08-07T05:43:51;8.27;;;3.67;;
50633;SDS011;36596;55.798;38.462;2022-08-07T05:46:19;8.50;;;4.15;;
50633;SDS011;36596;55.798;38.462;2022-08-07T05:48:47;8.75;;;4.47;;
50633;SDS011;36596;55.798;38.462;2022-08-07T05:51:14;7.53;;;4.25;;
50633;SDS011;36596;55.798;38.462;2022-08-07T05:53:42;5.70;;;3.53;;
50633;SDS011;36596;55.798;38.462;2022-08-07T05:56:08;9.27;;;3.60;;
50633;SDS011;36596;55.798;38.462;2022-08-07T05:58:40;5.95;;;3.63;;
50633;SDS011;36596;55.798;38.462;2022-08-07T06:01:10;4.05;;;3.45;;
50633;SDS011;36596;55.798;38.462;2022-08-07T06:03:51;8.35;;;3.85;;
50633;SDS011;36596;55.798;38.462;2022-08-07T06:06:19;6.60;;;3.50;;
50633;SDS011;36596;55.798;38.462;2022-08-07T06:08:48;6.80;;;3.17;;
50633;SDS011;36596;55.798;38.462;2022-08-07T06:11:14;7.93;;;3.70;;
50633;SDS011;36596;55.798;38.462;2022-08-07T06:13:41;5.57;;;3.03;;
50633;SDS011;36596;55.798;38.462;2022-08-07T06:16:08;10.00;;;3.95;;
50633;SDS011;36596;55.798;38.462;2022-08-07T06:18:34;6.57;;;3.35;;
50633;SDS011;36596;55.798;38.462;2022-08-07T06:21:00;7.30;;;3.30;;
50633;SDS011;36596;55.798;38.462;2022-08-07T06:23:29;8.02;;;4.05;;
50633;SDS011;36596;55.798;38.462;2022-08-07T06:25:56;7.90;;;3.40;;
50633;SDS011;36596;55.798;38.462;2022-08-07T06:28:24;7.80;;;3.45;;
50633;SDS011;36596;55.798;38.462;2022-08-07T06:30:54;6.47;;;3.55;;
50633;SDS011;36596;55.798;38.462;2022-08-07T06:33:21;8.68;;;3.35;;
50633;SDS011;36596;55.798;38.462;2022-08-07T06:35:49;7.78;;;3.50;;
50633;SDS011;36596;55.798;38.462;2022-08-07T06:38:14;6.53;;;3.50;;
50633;SDS011;36596;55.798;38.462;2022-08-07T06:40:43;7.68;;;3.25;;
50633;SDS011;36596;55.798;38.462;2022-08-07T06:43:14;4.78;;;2.55;;
50633;SDS011;36596;55.798;38.462;2022-08-07T06:45:53;10.45;;;3.78;;
50633;SDS011;36596;55.798;38.462;2022-08-07T06:48:20;5.65;;;2.42;;
50633;SDS011;36596;55.798;38.462;2022-08-07T06:50:48;5.65;;;2.90;;
50633;SDS011;36596;55.798;38.462;2022-08-07T06:53:19;4.82;;;2.58;;
50633;SDS011;36596;55.798;38.462;2022-08-07T06:55:47;7.03;;;2.67;;
50633;SDS011;36596;55.798;38.462;2022-08-07T06:58:14;4.97;;;2.33;;
50633;SDS011;36596;55.798;38.462;2022-08-07T07:00:52;8.70;;;2.58;;
50633;SDS011;36596;55.798;38.462;2022-08-07T07:03:22;5.47;;;2.60;;
50633;SDS011;36596;55.798;38.462;2022-08-07T07:05:49;4.30;;;2.80;;
50633;SDS011;36596;55.798;38.462;2022-08-07T07:08:15;4.03;;;2.85;;
50633;SDS011;36596;55.798;38.462;2022-08-07T07:10:41;6.00;;;2.53;;
50633;SDS011;36596;55.798;38.462;2022-08-07T07:13:13;10.20;;;2.58;;
50633;SDS011;36596;55.798;38.462;2022-08-07T07:15:45;5.15;;;2.78;;
50633;SDS011;36596;55.798;38.462;2022-08-07T07:18:16;5.60;;;2.55;;
50633;SDS011;36596;55.798;38.462;2022-08-07T07:20:55;6.82;;;3.08;;
50633;SDS011;36596;55.798;38.462;2022-08-07T07:23:26;5.35;;;2.80;;
50633;SDS011;36596;55.798;38.462;2022-08-07T07:25:56;6.53;;;2.50;;
50633;SDS011;36596;55.798;38.462;2022-08-07T07:28:28;6.75;;;2.42;;
50633;SDS011;36596;55.798;38.462;2022-08-07T07:30:56;6.28;;;2.60;;
50633;SDS011;36596;55.798;38.462;2022-08-07T07:33:25;8.15;;;2.78;;
50633;SDS011;36596;55.798;38.462;2022-08-07T07:35:52;9.00;;;2.38;;
50633;SDS011;36596;55.798;38.462;2022-08-07T07:38:22;3.60;;;2.42;;
50633;SDS011;36596;55.798;38.462;2022-08-07T07:40:55;7.35;;;3.05;;
50633;SDS011;36596;55.798;38.462;2022-08-07T07:43:25;5.45;;;3.20;;
50633;SDS011;36596;55.798;38.462;2022-08-07T07:45:53;7.97;;;3.00;;
50633;SDS011;36596;55.798;38.462;2022-08-07T07:48:20;6.80;;;2.60;;
50633;SDS011;36596;55.798;38.462;2022-08-07T07:50:49;10.02;;;2.67;;
50633;SDS011;36596;55.798;38.462;2022-08-07T07:53:18;9.25;;;3.00;;
50633;SDS011;36596;55.798;38.462;2022-08-07T07:55:46;6.30;;;2.55;;
50633;SDS011;36596;55.798;38.462;2022-08-07T07:58:12;5.53;;;2.65;;
50633;SDS011;36596;55.798;38.462;2022-08-07T08:00:40;5.85;;;2.65;;
50633;SDS011;36596;55.798;38.462;2022-08-07T08:03:10;4.88;;;2.20;;
50633;SDS011;36596;55.798;38.462;2022-08-07T08:05:40;4.60;;;2.40;;
50633;SDS011;36596;55.798;38.462;2022-08-07T08:08:07;6.07;;;2.28;;
50633;SDS011;36596;55.798;38.462;2022-08-07T08:10:35;4.70;;;2.03;;
50633;SDS011;36596;55.798;38.462;2022-08-07T08:13:02;3.08;;;2.50;;
50633;SDS011;36596;55.798;38.462;2022-08-07T08:15:31;8.55;;;2.92;;
50633;SDS011;36596;55.798;38.462;2022-08-07T08:18:00;5.47;;;2.30;;
50633;SDS011;36596;55.798;38.462;2022-08-07T08:20:28;7.43;;;2.55;;
50633;SDS011;36596;55.798;38.462;2022-08-07T08:22:57;6.10;;;2.75;;
50633;SDS011;36596;55.798;38.462;2022-08-07T08:25:43;7.63;;;2.47;;
50633;SDS011;36596;55.798;38.462;2022-08-07T08:28:29;5.60;;;1.98;;
50633;SDS011;36596;55.798;38.462;2022-08-07T08:30:57;9.43;;;2.07;;
50633;SDS011;36596;55.798;38.462;2022-08-07T08:33:26;2.83;;;2.07;;
50633;SDS011;36596;55.798;38.462;2022-08-07T08:35:55;7.07;;;1.98;;
50633;SDS011;36596;55.798;38.462;2022-08-07T08:38:24;3.33;;;1.70;;
50633;SDS011;36596;55.798;38.462;2022-08-07T08:43:50;4.88;;;1.80;;
50633;SDS011;36596;55.798;38.462;2022-08-07T08:46:45;7.22;;;2.10;;
50633;SDS011;36596;55.798;38.462;2022-08-07T08:49:20;4.10;;;1.85;;
50633;SDS011;36596;55.798;38.462;2022-08-07T08:54:21;7.53;;;2.63;;
50633;SDS011;36596;55.798;38.462;2022-08-07T08:56:51;5.40;;;2.00;;
50633;SDS011;36596;55.798;38.462;2022-08-07T08:59:21;5.17;;;2.30;;
50633;SDS011;36596;55.798;38.462;2022-08-07T09:02:18;7.10;;;2.38;;
50633;SDS011;36596;55.798;38.462;2022-08-07T09:30:08;3.88;;;1.52;;
50633;SDS011;36596;55.798;38.462;2022-08-07T09:38:18;6.88;;;1.60;;
50633;SDS011;36596;55.798;38.462;2022-08-07T09:57:20;5.50;;;2.10;;
50633;SDS011;36596;55.798;38.462;2022-08-07T10:00:09;3.33;;;2.28;;
50633;SDS011;36596;55.798;38.462;2022-08-07T10:05:54;6.70;;;2.95;;
50633;SDS011;36596;55.798;38.462;2022-08-07T10:25:19;7.25;;;2.95;;
50633;SDS011;36596;55.798;38.462;2022-08-07T10:28:08;8.48;;;2.78;;
50633;SDS011;36596;55.798;38.462;2022-08-07T10:30:54;5.60;;;2.88;;
50633;SDS011;36596;55.798;38.462;2022-08-07T10:42:16;5.32;;;1.90;;
50633;SDS011;36596;55.798;38.462;2022-08-07T10:50:30;2.90;;;1.85;;
50633;SDS011;36596;55.798;38.462;2022-08-07T10:53:06;7.10;;;1.75;;
50633;SDS011;36596;55.798;38.462;2022-08-07T11:01:07;6.10;;;1.83;;
50633;SDS011;36596;55.798;38.462;2022-08-07T11:06:49;5.13;;;1.77;;
50633;SDS011;36596;55.798;38.462;2022-08-07T11:09:27;7.60;;;2.08;;
50633;SDS011;36596;55.798;38.462;2022-08-07T11:12:16;4.07;;;2.08;;
50633;SDS011;36596;55.798;38.462;2022-08-07T11:14:51;5.57;;;2.05;;
50633;SDS011;36596;55.798;38.462;2022-08-07T11:23:17;4.90;;;2.42;;
50633;SDS011;36596;55.798;38.462;2022-08-07T11:25:53;5.18;;;2.20;;
50633;SDS011;36596;55.798;38.462;2022-08-07T11:28:34;5.30;;;2.38;;
50633;SDS011;36596;55.798;38.462;2022-08-07T11:31:26;3.92;;;2.22;;
50633;SDS011;36596;55.798;38.462;2022-08-07T12:00:13;3.75;;;2.13;;
50633;SDS011;36596;55.798;38.462;2022-08-07T12:08:40;6.43;;;3.42;;
50633;SDS011;36596;55.798;38.462;2022-08-07T12:11:15;9.18;;;3.17;;
50633;SDS011;36596;55.798;38.462;2022-08-07T12:13:53;9.77;;;3.60;;
50633;SDS011;36596;55.798;38.462;2022-08-07T12:16:34;8.95;;;3.15;;
50633;SDS011;36596;55.798;38.462;2022-08-07T12:19:14;9.02;;;3.53;;
50633;SDS011;36596;55.798;38.462;2022-08-07T12:24:46;6.00;;;3.88;;
50633;SDS011;36596;55.798;38.462;2022-08-07T12:27:34;6.60;;;3.25;;
50633;SDS011;36596;55.798;38.462;2022-08-07T12:30:06;10.10;;;4.10;;
50633;SDS011;36596;55.798;38.462;2022-08-07T12:32:41;7.22;;;3.35;;
50633;SDS011;36596;55.798;38.462;2022-08-07T12:35:12;9.30;;;4.13;;
50633;SDS011;36596;55.798;38.462;2022-08-07T12:37:40;6.47;;;3.78;;
50633;SDS011;36596;55.798;38.462;2022-08-07T12:40:11;7.05;;;3.95;;
50633;SDS011;36596;55.798;38.462;2022-08-07T12:42:40;7.78;;;3.83;;
50633;SDS011;36596;55.798;38.462;2022-08-07T12:45:26;5.70;;;3.47;;
50633;SDS011;36596;55.798;38.462;2022-08-07T12:50:52;7.75;;;4.30;;
50633;SDS011;36596;55.798;38.462;2022-08-07T12:58:30;5.75;;;3.83;;
50633;SDS011;36596;55.798;38.462;2022-08-07T13:03:43;4.97;;;3.65;;
50633;SDS011;36596;55.798;38.462;2022-08-07T13:12:13;4.80;;;4.00;;
50633;SDS011;36596;55.798;38.462;2022-08-07T13:17:48;8.80;;;4.05;;
50633;SDS011;36596;55.798;38.462;2022-08-07T13:20:41;7.72;;;4.35;;
50633;SDS011;36596;55.798;38.462;2022-08-07T13:23:19;6.70;;;4.28;;
50633;SDS011;36596;55.798;38.462;2022-08-07T13:28:47;6.32;;;3.00;;
50633;SDS011;36596;55.798;38.462;2022-08-07T13:31:32;4.05;;;3.03;;
50633;SDS011;36596;55.798;38.462;2022-08-07T13:34:12;4.15;;;3.20;;
50633;SDS011;36596;55.798;38.462;2022-08-07T13:36:58;4.53;;;2.90;;
50633;SDS011;36596;55.798;38.462;2022-08-07T13:42:21;8.50;;;2.90;;
50633;SDS011;36596;55.798;38.462;2022-08-07T13:44:54;6.95;;;3.65;;
50633;SDS011;36596;55.798;38.462;2022-08-07T13:47:22;8.82;;;3.45;;
50633;SDS011;36596;55.798;38.462;2022-08-07T13:49:56;4.30;;;3.00;;
50633;SDS011;36596;55.798;38.462;2022-08-07T13:52:24;12.77;;;3.80;;
50633;SDS011;36596;55.798;38.462;2022-08-07T13:54:53;6.38;;;3.25;;
50633;SDS011;36596;55.798;38.462;2022-08-07T13:57:24;6.43;;;3.53;;
50633;SDS011;36596;55.798;38.462;2022-08-07T13:59:51;4.47;;;3.10;;
50633;SDS011;36596;55.798;38.462;2022-08-07T14:02:26;5.63;;;3.53;;
50633;SDS011;36596;55.798;38.462;2022-08-07T14:04:56;7.72;;;3.97;;
50633;SDS011;36596;55.798;38.462;2022-08-07T14:07:31;4.63;;;3.88;;
50633;SDS011;36596;55.798;38.462;2022-08-07T14:09:58;6.22;;;3.67;;
50633;SDS011;36596;55.798;38.462;2022-08-07T14:15:31;4.95;;;3.90;;
50633;SDS011;36596;55.798;38.462;2022-08-07T14:18:03;4.90;;;4.20;;
50633;SDS011;36596;55.798;38.462;2022-08-07T14:20:30;5.35;;;4.03;;
50633;SDS011;36596;55.798;38.462;2022-08-07T14:23:17;8.43;;;4.18;;
50633;SDS011;36596;55.798;38.462;2022-08-07T14:25:53;5.22;;;4.50;;
50633;SDS011;36596;55.798;38.462;2022-08-07T14:28:32;4.63;;;4.05;;
50633;SDS011;36596;55.798;38.462;2022-08-07T14:31:01;6.57;;;4.30;;
50633;SDS011;36596;55.798;38.462;2022-08-07T14:33:27;4.50;;;3.95;;
50633;SDS011;36596;55.798;38.462;2022-08-07T14:35:57;8.05;;;5.68;;
50633;SDS011;36596;55.798;38.462;2022-08-07T14:38:26;7.33;;;5.03;;
50633;SDS011;36596;55.798;38.462;2022-08-07T14:41:04;7.47;;;4.35;;
50633;SDS011;36596;55.798;38.462;2022-08-07T14:43:32;6.15;;;4.57;;
50633;SDS011;36596;55.798;38.462;2022-08-07T14:46:02;7.85;;;5.70;;
50633;SDS011;36596;55.798;38.462;2022-08-07T14:48:31;8.50;;;4.88;;
50633;SDS011;36596;55.798;38.462;2022-08-07T14:50:59;5.95;;;4.63;;
50633;SDS011;36596;55.798;38.462;2022-08-07T14:53:30;5.57;;;3.45;;
50633;SDS011;36596;55.798;38.462;2022-08-07T14:56:02;6.70;;;3.53;;
50633;SDS011;36596;55.798;38.462;2022-08-07T14:58:31;6.95;;;4.15;;
50633;SDS011;36596;55.798;38.462;2022-08-07T15:00:59;10.23;;;3.97;;
50633;SDS011;36596;55.798;38.462;2022-08-07T15:03:29;7.97;;;4.30;;
50633;SDS011;36596;55.798;38.462;2022-08-07T15:05:56;6.07;;;3.60;;
50633;SDS011;36596;55.798;38.462;2022-08-07T15:08:25;5.72;;;3.42;;
50633;SDS011;36596;55.798;38.462;2022-08-07T15:11:09;7.88;;;3.58;;
50633;SDS011;36596;55.798;38.462;2022-08-07T15:13:43;8.00;;;3.35;;
50633;SDS011;36596;55.798;38.462;2022-08-07T15:16:16;6.65;;;2.92;;
50633;SDS011;36596;55.798;38.462;2022-08-07T15:18:46;3.17;;;2.50;;
50633;SDS011;36596;55.798;38.462;2022-08-07T15:21:19;3.60;;;2.67;;
50633;SDS011;36596;55.798;38.462;2022-08-07T15:23:52;3.28;;;2.58;;
50633;SDS011;36596;55.798;38.462;2022-08-07T15:26:22;3.55;;;2.97;;
50633;SDS011;36596;55.798;38.462;2022-08-07T15:28:56;5.38;;;2.70;;
50633;SDS011;36596;55.798;38.462;2022-08-07T15:31:24;3.30;;;2.40;;
50633;SDS011;36596;55.798;38.462;2022-08-07T15:33:59;3.88;;;3.47;;
50633;SDS011;36596;55.798;38.462;2022-08-07T15:36:26;4.63;;;3.58;;
50633;SDS011;36596;55.798;38.462;2022-08-07T15:38:54;4.85;;;3.80;;
50633;SDS011;36596;55.798;38.462;2022-08-07T15:41:21;4.18;;;3.17;;
50633;SDS011;36596;55.798;38.462;2022-08-07T15:43:59;5.25;;;3.83;;
50633;SDS011;36596;55.798;38.462;2022-08-07T15:48:55;4.18;;;3.78;;
50633;SDS011;36596;55.798;38.462;2022-08-07T15:51:24;5.20;;;3.67;;
50633;SDS011;36596;55.798;38.462;2022-08-07T15:53:53;4.90;;;3.42;;
50633;SDS011;36596;55.798;38.462;2022-08-07T15:56:23;4.65;;;4.05;;
50633;SDS011;36596;55.798;38.462;2022-08-07T15:58:58;5.63;;;4.13;;
50633;SDS011;36596;55.798;38.462;2022-08-07T16:01:30;6.13;;;4.03;;
50633;SDS011;36596;55.798;38.462;2022-08-07T16:04:03;5.45;;;4.38;;
50633;SDS011;36596;55.798;38.462;2022-08-07T16:06:40;3.92;;;3.53;;
50633;SDS011;36596;55.798;38.462;2022-08-07T16:26:09;4.30;;;3.17;;
50633;SDS011;36596;55.798;38.462;2022-08-07T16:29:01;4.88;;;3.38;;
50633;SDS011;36596;55.798;38.462;2022-08-07T16:31:39;3.58;;;3.15;;
50633;SDS011;36596;55.798;38.462;2022-08-07T16:34:07;5.32;;;3.50;;
50633;SDS011;36596;55.798;38.462;2022-08-07T16:42:09;5.97;;;3.80;;
50633;SDS011;36596;55.798;38.462;2022-08-07T16:50:36;4.35;;;3.95;;
50633;SDS011;36596;55.798;38.462;2022-08-07T16:53:42;4.13;;;3.58;;
50633;SDS011;36596;55.798;38.462;2022-08-07T16:56:17;4.22;;;3.60;;
50633;SDS011;36596;55.798;38.462;2022-08-07T17:09:37;6.25;;;3.60;;
50633;SDS011;36596;55.798;38.462;2022-08-07T17:12:34;5.50;;;3.53;;
50633;SDS011;36596;55.798;38.462;2022-08-07T17:22:56;3.88;;;3.40;;
50633;SDS011;36596;55.798;38.462;2022-08-07T17:25:36;3.60;;;3.30;;
50633;SDS011;36596;55.798;38.462;2022-08-07T17:28:39;4.97;;;3.30;;
50633;SDS011;36596;55.798;38.462;2022-08-07T17:31:20;4.03;;;3.63;;
50633;SDS011;36596;55.798;38.462;2022-08-07T17:33:53;6.82;;;5.90;;
50633;SDS011;36596;55.798;38.462;2022-08-07T17:36:29;3.72;;;3.33;;
50633;SDS011;36596;55.798;38.462;2022-08-07T17:39:10;6.28;;;4.03;;
50633;SDS011;36596;55.798;38.462;2022-08-07T17:41:46;5.45;;;3.78;;
50633;SDS011;36596;55.798;38.462;2022-08-07T17:47:10;4.65;;;3.78;;
50633;SDS011;36596;55.798;38.462;2022-08-07T17:49:53;7.25;;;4.70;;
50633;SDS011;36596;55.798;38.462;2022-08-07T17:52:26;6.18;;;3.65;;
50633;SDS011;36596;55.798;38.462;2022-08-07T17:55:10;13.73;;;4.72;;
50633;SDS011;36596;55.798;38.462;2022-08-07T18:00:08;8.45;;;4.70;;
50633;SDS011;36596;55.798;38.462;2022-08-07T18:02:45;7.00;;;4.65;;
50633;SDS011;36596;55.798;38.462;2022-08-07T18:08:13;7.38;;;4.88;;
50633;SDS011;36596;55.798;38.462;2022-08-07T18:13:16;9.77;;;6.85;;
50633;SDS011;36596;55.798;38.462;2022-08-07T18:15:54;17.73;;;11.35;;
50633;SDS011;36596;55.798;38.462;2022-08-07T18:18:30;12.68;;;9.68;;
50633;SDS011;36596;55.798;38.462;2022-08-07T18:21:01;13.02;;;9.30;;
50633;SDS011;36596;55.798;38.462;2022-08-07T18:23:56;11.60;;;8.75;;
50633;SDS011;36596;55.798;38.462;2022-08-07T18:31:58;13.80;;;10.38;;
50633;SDS011;36596;55.798;38.462;2022-08-07T18:51:39;14.93;;;10.05;;
50633;SDS011;36596;55.798;38.462;2022-08-07T18:54:19;15.50;;;10.77;;
50633;SDS011;36596;55.798;38.462;2022-08-07T18:56:51;17.00;;;12.30;;
50633;SDS011;36596;55.798;38.462;2022-08-07T19:05:13;13.32;;;10.13;;
50633;SDS011;36596;55.798;38.462;2022-08-07T19:07:59;11.75;;;10.43;;
50633;SDS011;36596;55.798;38.462;2022-08-07T19:10:30;10.43;;;9.25;;
50633;SDS011;36596;55.798;38.462;2022-08-07T19:15:51;11.43;;;8.57;;
50633;SDS011;36596;55.798;38.462;2022-08-07T19:24:25;8.75;;;6.82;;
50633;SDS011;36596;55.798;38.462;2022-08-07T19:26:58;10.35;;;7.82;;
50633;SDS011;36596;55.798;38.462;2022-08-07T19:29:28;9.07;;;6.68;;
50633;SDS011;36596;55.798;38.462;2022-08-07T19:31:57;13.18;;;7.80;;